Time;durP1;ratioP1;P1;durP2;ratioP2;P2;SDS_P1;SDS_P2;PMS_P1;PMS_P2;Temp;Humidity;BMP_temperature;BMP_pressure;BME280_temperature;BME280_humidity;BME280_pressure;Samples;Min_cycle;Max_cycle;Signal;HPM_P1;HPM_P2
2022/12/29 00:00:05;;;;;;;;;;;;;;;6.00;83.11;100313.41;1697751;82;21062;-78
2022/12/29 00:02:31;;;;;;;10.63;6.28;;;;;;;5.98;83.20;100308.70;1718683;83;20160;-78
2022/12/29 00:04:58;;;;;;;10.15;6.03;;;;;;;5.97;83.18;100308.28;1717349;83;21073;-78
2022/12/29 00:07:24;;;;;;;11.65;6.12;;;;;;;5.95;83.18;100301.87;1716691;81;21769;-78
2022/12/29 00:09:51;;;;;;;8.28;5.65;;;;;;;5.95;83.19;100292.89;1716432;81;21575;-78
2022/12/29 00:12:17;;;;;;;9.73;5.97;;;;;;;5.95;83.20;100280.06;1717007;81;20974;-78
2022/12/29 00:17:29;;;;;;;9.08;5.97;;;;;;;5.95;83.19;100275.36;1715536;81;21062;-78
2022/12/29 00:36:38;;;;;;;5.87;4.28;;;;;;;5.83;83.16;100258.67;1713433;83;20957;-78
2022/12/29 00:44:49;;;;;;;7.00;4.10;;;;;;;5.78;83.20;100249.70;1707732;83;20932;-78
2022/12/29 00:47:15;;;;;;;6.35;4.28;;;;;;;5.78;83.20;100245.86;1715086;82;21752;-78
2022/12/29 00:49:42;;;;;;;7.25;4.28;;;;;;;5.78;83.22;100246.28;1715072;83;21254;-79
2022/12/29 00:52:12;;;;;;;7.37;4.70;;;;;;;5.78;83.21;100242.44;1714064;82;21606;-78
2022/12/29 00:54:40;;;;;;;6.75;4.45;;;;;;;5.77;83.20;100235.59;1712557;82;21070;-78
2022/12/29 00:57:09;;;;;;;8.00;4.60;;;;;;;5.77;83.20;100235.17;1714672;83;21659;-78
2022/12/29 00:59:38;;;;;;;6.67;4.95;;;;;;;5.77;83.21;100228.75;1713616;82;21079;-78
2022/12/29 01:02:04;;;;;;;6.62;4.78;;;;;;;5.77;83.22;100233.03;1714584;82;21603;-78
2022/12/29 01:04:31;;;;;;;9.65;4.67;;;;;;;5.79;83.23;100232.59;1717040;82;21606;-78
2022/12/29 01:06:57;;;;;;;11.63;4.20;;;;;;;5.79;83.22;100228.75;1711043;82;21073;-78
2022/12/29 01:12:11;;;;;;;5.40;4.00;;;;;;;5.82;83.27;100215.48;1714085;82;21124;-77
2022/12/29 01:14:38;;;;;;;5.33;3.90;;;;;;;5.83;83.28;100219.76;1715413;83;20944;-78
2022/12/29 01:17:05;;;;;;;6.40;4.42;;;;;;;5.86;83.27;100215.05;1716693;82;20963;-78
2022/12/29 01:19:32;;;;;;;9.45;4.58;;;;;;;5.87;83.26;100200.08;1716278;82;20965;-78
2022/12/29 01:21:58;;;;;;;10.03;4.75;;;;;;;5.88;83.27;100207.77;1712638;83;21341;-78
2022/12/29 01:24:26;;;;;;;8.45;5.15;;;;;;;5.88;83.25;100198.78;1716526;82;21402;-78
2022/12/29 01:26:54;;;;;;;7.58;4.80;;;;;;;5.90;83.26;100193.69;1716419;82;20944;-78
2022/12/29 01:29:20;;;;;;;7.15;5.05;;;;;;;5.91;83.29;100201.38;1715713;82;20904;-78
2022/12/29 01:31:47;;;;;;;9.93;4.75;;;;;;;5.92;83.27;100203.09;1714178;83;20960;-78
2022/12/29 01:34:14;;;;;;;7.12;4.37;;;;;;;5.94;83.29;100196.23;1715632;82;20970;-78
2022/12/29 01:36:40;;;;;;;5.08;4.05;;;;;;;5.97;83.30;100197.94;1720563;83;21167;-78
2022/12/29 01:39:06;;;;;;;7.80;4.50;;;;;;;6.00;83.26;100190.22;1721169;81;20947;-78
2022/12/29 01:41:33;;;;;;;6.62;4.35;;;;;;;6.02;83.26;100189.79;1721794;83;20903;-78
2022/12/29 01:44:01;;;;;;;9.70;4.58;;;;;;;6.03;83.27;100174.81;1721989;83;21314;-78
2022/12/29 01:46:39;;;;;;;8.35;4.83;;;;;;;6.06;83.27;100179.08;1721114;81;20946;-78
2022/12/29 01:49:22;;;;;;;7.40;4.70;;;;;;;6.08;83.25;100170.51;1720966;83;21458;-78
2022/12/29 01:51:59;;;;;;;6.72;4.15;;;;;;;6.10;83.26;100168.79;1721127;81;20911;-78
2022/12/29 01:54:36;;;;;;;8.33;4.40;;;;;;;6.12;83.24;100172.63;1719898;81;20903;-78
2022/12/29 01:57:07;;;;;;;8.40;4.72;;;;;;;6.13;83.24;100168.78;1722081;81;20961;-78
2022/12/29 01:59:39;;;;;;;4.97;3.77;;;;;;;6.16;83.22;100165.34;1721409;83;20915;-78
2022/12/29 02:02:07;;;;;;;5.58;4.35;;;;;;;6.19;83.21;100158.91;1719874;83;21129;-78
2022/12/29 02:04:38;;;;;;;5.50;4.42;;;;;;;6.18;83.22;100157.20;1720806;83;21575;-78
2022/12/29 02:07:10;;;;;;;5.40;4.08;;;;;;;6.21;83.23;100150.77;1720046;81;21133;-78
2022/12/29 02:09:37;;;;;;;8.58;4.03;;;;;;;6.23;83.21;100141.34;1720372;83;21044;-78
2022/12/29 02:12:04;;;;;;;5.25;4.00;;;;;;;6.24;83.21;100143.87;1720450;83;21496;-78
2022/12/29 02:14:31;;;;;;;6.95;3.95;;;;;;;6.26;83.20;100136.16;1720141;81;21754;-78
2022/12/29 02:17:19;;;;;;;4.60;3.87;;;;;;;6.29;83.22;100142.56;1694694;83;21404;-78
2022/12/29 02:20:19;;;;;;;6.90;4.00;;;;;;;6.30;83.24;100142.98;1721480;83;20932;-78
2022/12/29 02:23:18;;;;;;;5.97;3.92;;;;;;;6.31;83.25;100140.41;1721325;81;20995;-78
2022/12/29 02:26:22;;;;;;;5.35;3.85;;;;;;;6.33;83.27;100139.11;1720359;83;21567;-78
2022/12/29 02:29:23;;;;;;;7.35;3.95;;;;;;;6.35;83.29;100145.52;1718921;81;21903;-77
2022/12/29 02:32:15;;;;;;;7.40;3.55;;;;;;;6.35;83.31;100129.69;1658643;81;21085;-77
2022/12/29 02:35:02;;;;;;;6.97;4.25;;;;;;;6.37;83.31;100133.09;1658703;82;21160;-77
2022/12/29 02:37:42;;;;;;;6.25;3.52;;;;;;;6.39;83.33;100138.22;1725846;82;21116;-77
2022/12/29 02:40:32;;;;;;;5.30;3.70;;;;;;;6.40;83.34;100130.50;1721634;81;21058;-77
2022/12/29 02:43:28;;;;;;;5.08;3.47;;;;;;;6.41;83.35;100128.78;1724525;82;21089;-77
2022/12/29 02:46:06;;;;;;;6.47;3.33;;;;;;;6.41;83.38;100125.79;1726452;82;21080;-78
2022/12/29 02:49:07;;;;;;;6.17;3.47;;;;;;;6.42;83.41;100122.36;1723135;81;21069;-78
2022/12/29 02:51:44;;;;;;;3.17;2.87;;;;;;;6.42;83.40;100119.79;1727632;82;21047;-78
2022/12/29 02:56:56;;;;;;;4.97;3.30;;;;;;;6.42;83.40;100113.80;1727676;81;21775;-78
2022/12/29 02:59:23;;;;;;;4.35;3.10;;;;;;;6.41;83.43;100111.66;1724496;81;21109;-78
2022/12/29 03:02:28;;;;;;;3.85;2.83;;;;;;;6.41;83.46;100103.96;1726650;81;20908;-78
2022/12/29 03:05:20;;;;;;;5.37;3.30;;;;;;;6.42;83.44;100100.53;1723335;82;21089;-78
2022/12/29 03:08:05;;;;;;;6.20;3.33;;;;;;;6.42;83.46;100106.09;1727495;82;21034;-78
2022/12/29 03:10:51;;;;;;;5.17;2.83;;;;;;;6.42;83.49;100105.67;1707933;81;21495;-78
2022/12/29 03:16:48;;;;;;;7.25;2.65;;;;;;;6.42;83.53;100098.39;1726878;81;25885;-77
2022/12/29 03:19:25;;;;;;;5.47;2.98;;;;;;;6.43;83.51;100095.81;1695085;82;21264;-78
2022/12/29 03:24:51;;;;;;;3.98;2.50;;;;;;;6.43;83.51;100103.95;1726355;81;22436;-78
2022/12/29 03:27:29;;;;;;;4.45;3.17;;;;;;;6.43;83.51;100100.95;1697278;82;21078;-78
2022/12/29 03:30:00;;;;;;;3.67;2.33;;;;;;;6.43;83.51;100099.67;1724659;82;21069;-78
2022/12/29 03:32:38;;;;;;;6.50;3.08;;;;;;;6.45;83.52;100102.22;1727015;82;21371;-78
2022/12/29 03:35:07;;;;;;;5.62;2.90;;;;;;;6.45;83.52;100097.94;1725745;82;21126;-77
2022/12/29 03:37:38;;;;;;;3.70;2.92;;;;;;;6.45;83.51;100097.94;1714899;82;21706;-78
2022/12/29 03:40:06;;;;;;;4.65;3.10;;;;;;;6.46;83.52;100094.51;1714322;83;21074;-78
2022/12/29 03:42:35;;;;;;;6.25;2.80;;;;;;;6.47;83.55;100100.50;1713522;83;21035;-78
2022/12/29 03:45:04;;;;;;;6.08;2.65;;;;;;;6.46;83.55;100097.08;1715703;82;20916;-78
2022/12/29 03:47:31;;;;;;;4.00;2.50;;;;;;;6.46;83.52;100093.23;1716787;83;20983;-78
2022/12/29 03:49:57;;;;;;;4.35;2.80;;;;;;;6.47;83.55;100080.80;1716474;83;21111;-78
2022/12/29 03:52:24;;;;;;;4.65;2.72;;;;;;;6.48;83.56;100086.79;1715434;82;20980;-78
2022/12/29 03:54:50;;;;;;;4.42;2.30;;;;;;;6.48;83.58;100079.94;1715901;82;25627;-78
2022/12/29 03:57:16;;;;;;;4.03;2.60;;;;;;;6.49;83.58;100069.23;1716381;82;20944;-78
2022/12/29 03:59:43;;;;;;;3.87;2.40;;;;;;;6.48;83.53;100069.66;1715473;83;21066;-78
2022/12/29 04:02:09;;;;;;;2.65;2.37;;;;;;;6.51;83.58;100068.79;1712522;83;21815;-78
2022/12/29 04:04:36;;;;;;;4.65;2.87;;;;;;;6.51;83.58;100070.92;1714775;82;21070;-78
2022/12/29 04:07:02;;;;;;;3.33;2.37;;;;;;;6.51;83.56;100068.36;1715332;82;25748;-78
2022/12/29 04:09:31;;;;;;;4.87;2.67;;;;;;;6.53;83.57;100073.48;1715433;83;21864;-78
2022/12/29 04:11:57;;;;;;;2.85;2.17;;;;;;;6.53;83.56;100074.77;1714475;82;21117;-78
2022/12/29 04:14:24;;;;;;;4.00;2.25;;;;;;;6.54;83.58;100068.77;1714322;82;21654;-78
2022/12/29 04:16:50;;;;;;;4.83;2.50;;;;;;;6.55;83.59;100076.89;1713473;83;21636;-78
2022/12/29 04:19:17;;;;;;;4.80;2.67;;;;;;;6.55;83.56;100073.89;1713700;82;21074;-78
2022/12/29 04:21:43;;;;;;;3.00;2.17;;;;;;;6.56;83.57;100070.45;1714466;83;21050;-78
2022/12/29 04:24:10;;;;;;;4.00;2.40;;;;;;;6.57;83.56;100068.30;1714661;82;21583;-78
2022/12/29 04:26:36;;;;;;;3.52;2.50;;;;;;;6.57;83.56;100059.31;1714310;83;21861;-78
2022/12/29 04:29:03;;;;;;;4.45;2.42;;;;;;;6.58;83.53;100057.17;1713965;82;21067;-78
2022/12/29 04:31:29;;;;;;;4.65;2.45;;;;;;;6.59;83.53;100059.30;1714902;83;21026;-78
2022/12/29 04:33:57;;;;;;;4.17;2.50;;;;;;;6.60;83.51;100057.16;1715123;83;21747;-78
2022/12/29 04:36:24;;;;;;;3.30;2.55;;;;;;;6.60;83.49;100054.16;1713664;82;21129;-78
2022/12/29 04:38:50;;;;;;;;;;;;;;;6.60;83.49;100071.28;1717909;83;21773;-78
2022/12/29 04:41:16;;;;;;;4.28;3.25;;;;;;;6.61;83.45;100072.55;1714234;83;20216;-78
2022/12/29 04:46:07;;;;;;;4.97;2.62;;;;;;;6.68;83.50;100060.94;1870702;74;28092;-78
2022/12/29 04:48:33;;;;;;;5.15;2.60;;;;;;;6.64;83.47;100067.39;1853894;77;21061;-77
2022/12/29 04:51:00;;;;;;;5.58;2.98;;;;;;;6.65;83.45;100064.39;1853132;76;21125;-78
2022/12/29 04:53:26;;;;;;;3.55;2.67;;;;;;;6.67;83.47;100070.37;1781975;80;21040;-77
2022/12/29 04:55:53;;;;;;;4.22;2.60;;;;;;;6.68;83.42;100046.38;1815356;77;21000;-77
2022/12/29 04:58:21;;;;;;;6.00;2.85;;;;;;;6.68;83.42;100046.38;1816100;77;21083;-78
2022/12/29 05:00:47;;;;;;;4.70;2.67;;;;;;;6.69;83.40;100039.52;1815331;77;21106;-77
2022/12/29 05:03:14;;;;;;;6.20;3.47;;;;;;;6.69;83.37;100039.52;1815384;77;20969;-77
2022/12/29 05:05:41;;;;;;;4.67;2.60;;;;;;;6.68;83.38;100045.09;1815348;78;21541;-77
2022/12/29 05:08:08;;;;;;;5.70;3.00;;;;;;;6.68;83.37;100035.25;1815996;78;21426;-77
2022/12/29 05:10:34;;;;;;;4.22;2.70;;;;;;;6.68;83.37;100039.95;1798651;78;21561;-77
2022/12/29 05:13:01;;;;;;;8.30;3.60;;;;;;;6.69;83.36;100027.53;1792183;78;21103;-77
2022/12/29 05:15:27;;;;;;;3.37;2.20;;;;;;;6.70;83.35;100028.38;1809231;78;21636;-78
2022/12/29 05:17:54;;;;;;;5.25;2.95;;;;;;;6.70;83.33;100024.09;1785260;78;26572;-78
2022/12/29 05:20:21;;;;;;;4.72;2.75;;;;;;;6.71;83.33;100017.23;1814721;77;21537;-77
2022/12/29 05:22:47;;;;;;;6.20;3.12;;;;;;;6.72;83.32;100020.23;1782948;79;21052;-78
2022/12/29 05:25:14;;;;;;;3.42;2.85;;;;;;;6.73;83.35;100017.64;1779699;80;21080;-78
2022/12/29 05:27:40;;;;;;;4.55;2.15;;;;;;;6.74;83.32;100013.36;1788569;79;21087;-78
2022/12/29 05:30:08;;;;;;;3.33;2.50;;;;;;;6.76;83.31;100006.48;1788123;79;21032;-78
2022/12/29 05:32:35;;;;;;;4.67;2.42;;;;;;;6.76;83.27;100001.34;1790108;79;21084;-77
2022/12/29 05:35:01;;;;;;;5.35;3.12;;;;;;;6.75;83.27;100006.92;1781327;79;21113;-78
2022/12/29 05:37:28;;;;;;;4.10;2.80;;;;;;;6.75;83.27;100009.48;1780548;79;21455;-78
2022/12/29 05:39:55;;;;;;;7.20;3.00;;;;;;;6.75;83.26;100006.06;1806731;79;22291;-78
2022/12/29 05:42:21;;;;;;;3.70;2.72;;;;;;;6.75;83.24;100009.48;1805006;78;21018;-78
2022/12/29 05:44:49;;;;;;;6.17;2.67;;;;;;;6.76;83.26;100012.91;1805072;78;21016;-78
2022/12/29 05:47:16;;;;;;;3.75;2.42;;;;;;;6.75;83.25;100006.06;1802551;78;21111;-78
2022/12/29 05:49:42;;;;;;;2.90;2.60;;;;;;;6.75;83.24;99998.36;1784357;78;21520;-78
2022/12/29 05:52:09;;;;;;;3.75;2.45;;;;;;;6.75;83.25;99999.64;1790730;79;21570;-78
2022/12/29 05:54:35;;;;;;;7.03;3.37;;;;;;;6.74;83.23;100001.36;1783479;78;21032;-78
2022/12/29 05:57:02;;;;;;;3.37;2.58;;;;;;;6.73;83.25;99998.80;1816256;77;21077;-78
2022/12/29 05:59:28;;;;;;;3.72;2.47;;;;;;;6.73;83.25;100002.22;1815167;77;21080;-78
2022/12/29 06:01:55;;;;;;;3.83;2.47;;;;;;;6.73;83.22;99999.66;1810694;77;21061;-78
2022/12/29 06:04:21;;;;;;;3.95;2.85;;;;;;;6.72;83.24;99994.10;1782659;80;22116;-78
2022/12/29 06:06:48;;;;;;;6.10;2.90;;;;;;;6.73;83.23;99994.95;1815228;77;21029;-78
2022/12/29 06:09:15;;;;;;;3.37;2.42;;;;;;;6.73;83.24;100003.94;1783487;79;21654;-78
2022/12/29 06:11:41;;;;;;;4.10;2.72;;;;;;;6.74;83.20;100010.78;1783072;78;21560;-78
2022/12/29 06:14:08;;;;;;;3.33;2.47;;;;;;;6.73;83.22;100016.36;1795923;79;21041;-78
2022/12/29 06:16:34;;;;;;;7.20;2.70;;;;;;;6.75;83.22;100022.77;1797954;79;21158;-78
2022/12/29 06:19:01;;;;;;;4.15;2.87;;;;;;;6.76;83.21;100030.42;1783380;78;21120;-78
2022/12/29 06:21:27;;;;;;;4.60;2.42;;;;;;;6.76;83.21;100021.90;1816119;77;21004;-78
2022/12/29 06:23:54;;;;;;;3.52;2.87;;;;;;;6.77;83.18;100014.58;1815744;78;21021;-78
2022/12/29 06:26:20;;;;;;;7.75;3.50;;;;;;;6.77;83.20;100005.15;1787336;78;21040;-78
2022/12/29 06:28:47;;;;;;;3.60;2.83;;;;;;;6.78;83.18;100006.85;1800629;78;21695;-78
2022/12/29 06:31:13;;;;;;;5.25;3.10;;;;;;;6.79;83.19;100017.98;1783985;80;21036;-78
2022/12/29 06:33:40;;;;;;;6.05;3.10;;;;;;;6.78;83.16;100026.13;1816019;77;21072;-77
2022/12/29 06:36:07;;;;;;;4.95;3.22;;;;;;;6.80;83.18;100027.39;1803559;77;21531;-77
2022/12/29 06:38:35;;;;;;;5.80;3.15;;;;;;;6.81;83.17;100022.67;1817320;78;20915;-77
2022/12/29 06:41:01;;;;;;;5.55;3.30;;;;;;;6.81;83.17;100014.97;1785101;80;21706;-78
2022/12/29 06:43:28;;;;;;;5.00;3.22;;;;;;;6.82;83.14;100015.38;1783034;78;21742;-78
2022/12/29 06:45:54;;;;;;;4.75;3.22;;;;;;;6.82;83.16;100012.38;1817346;77;21159;-78
2022/12/29 06:48:21;;;;;;;6.78;3.60;;;;;;;6.83;83.14;100017.94;1785662;78;20917;-78
2022/12/29 06:50:47;;;;;;;4.53;3.00;;;;;;;6.85;83.10;100014.06;1792673;79;22152;-78
2022/12/29 06:53:14;;;;;;;4.83;3.20;;;;;;;6.85;83.11;100017.92;1789022;78;21548;-78
2022/12/29 06:55:42;;;;;;;4.72;3.10;;;;;;;6.85;83.11;100023.06;1820132;77;21496;-78
2022/12/29 06:58:09;;;;;;;4.65;3.40;;;;;;;6.85;83.11;100026.48;1788936;79;21066;-78
2022/12/29 07:00:35;;;;;;;4.85;3.27;;;;;;;6.86;83.10;100022.19;1786786;78;21877;-78
2022/12/29 07:03:02;;;;;;;5.85;4.00;;;;;;;6.87;83.10;100018.75;1775664;78;21114;-78
2022/12/29 07:05:31;;;;;;;7.95;3.95;;;;;;;6.88;83.08;100015.32;1820203;78;21047;-78
2022/12/29 07:07:57;;;;;;;6.87;4.22;;;;;;;6.90;83.11;100025.15;1787478;78;21079;-78
2022/12/29 07:10:24;;;;;;;;;;;;;;;6.90;83.11;100023.86;1822324;77;21087;-78
2022/12/29 07:12:50;;;;;;;;;;;;;;;6.91;82.99;100027.70;1782066;79;20227;-78
2022/12/29 07:15:17;;;;;;;5.70;3.40;;;;;;;6.93;83.02;100027.69;1790773;78;20612;-78
2022/12/29 07:17:43;;;;;;;5.65;3.08;;;;;;;6.94;83.06;100032.81;1818501;78;22303;-78
2022/12/29 07:20:10;;;;;;;5.65;3.60;;;;;;;6.96;83.08;100024.66;1818926;77;21045;-78
2022/12/29 07:22:36;;;;;;;;;;;;;;;6.98;83.07;100026.77;1790628;78;21044;-78
2022/12/29 07:25:04;;;;;;;5.40;2.98;;;;;;;7.00;83.02;100022.90;1788447;79;20214;-78
2022/12/29 07:27:30;;;;;;;6.03;3.60;;;;;;;7.01;83.05;100020.75;1798140;78;21095;-78
2022/12/29 07:29:56;;;;;;;4.08;3.10;;;;;;;7.02;83.07;100008.75;1785896;78;22203;-78
2022/12/29 07:32:23;;;;;;;3.77;2.37;;;;;;;7.04;83.06;100004.00;1803112;78;21088;-78
2022/12/29 07:34:50;;;;;;;4.45;2.45;;;;;;;7.05;83.05;99997.14;1793675;78;21087;-78
2022/12/29 07:37:16;;;;;;;8.28;3.00;;;;;;;7.06;83.04;99995.84;1787789;78;21123;-78
2022/12/29 07:39:43;;;;;;;4.75;2.70;;;;;;;7.08;83.06;99996.67;1822263;78;21556;-77
2022/12/29 07:42:09;;;;;;;6.08;2.98;;;;;;;7.10;83.07;99997.51;1826592;77;21401;-78
2022/12/29 07:44:36;;;;;;;4.10;2.60;;;;;;;7.10;83.04;99977.38;1817866;78;21084;-78
2022/12/29 07:47:03;;;;;;;3.25;2.40;;;;;;;7.11;83.05;99979.93;1812641;78;21029;-78
2022/12/29 07:49:29;;;;;;;3.42;2.62;;;;;;;7.13;83.04;99985.05;1784715;78;21448;-78
2022/12/29 07:51:56;;;;;;;3.83;2.62;;;;;;;7.15;83.05;99989.74;1816164;77;21048;-78
2022/12/29 07:54:23;;;;;;;3.72;2.58;;;;;;;7.16;83.02;99993.58;1813170;77;21676;-79
2022/12/29 07:56:49;;;;;;;;;;;;;;;7.17;83.05;100008.14;1820469;78;21318;-79
2022/12/29 07:59:15;;;;;;;3.47;2.60;;;;;;;7.19;82.97;100000.41;1799265;78;20185;-79
2022/12/29 08:01:42;;;;;;;4.37;3.02;;;;;;;7.20;83.01;100008.10;1811692;77;21929;-79
2022/12/29 08:04:08;;;;;;;3.98;2.80;;;;;;;7.21;83.02;99994.37;1786788;79;21607;-79
2022/12/29 08:06:37;;;;;;;3.50;2.87;;;;;;;7.23;83.04;99995.21;1781819;78;21664;-79
2022/12/29 08:09:05;;;;;;;6.17;3.30;;;;;;;7.25;83.05;99991.33;1785186;78;21495;-84
2022/12/29 08:11:32;;;;;;;8.83;3.47;;;;;;;7.28;83.04;99993.84;1810877;77;21052;-80
2022/12/29 08:13:58;;;;;;;4.42;3.30;;;;;;;7.30;83.06;100001.95;1815100;77;21025;-84
2022/12/29 08:16:25;;;;;;;6.20;3.90;;;;;;;7.34;83.04;100005.77;1783731;78;21111;-82
2022/12/29 08:18:51;;;;;;;4.75;3.05;;;;;;;7.36;83.04;100004.03;1786302;78;21655;-81
2022/12/29 08:21:18;;;;;;;5.05;3.12;;;;;;;7.38;83.04;99995.86;1779198;80;21025;-80
2022/12/29 08:23:44;;;;;;;4.37;3.35;;;;;;;7.41;83.02;99998.39;1816591;77;21032;-80
2022/12/29 08:26:11;;;;;;;4.70;3.30;;;;;;;7.44;83.04;99999.64;1816040;78;21012;-80
2022/12/29 08:28:37;;;;;;;4.85;3.45;;;;;;;7.47;83.00;100002.17;1784576;79;27131;-81
2022/12/29 08:31:04;;;;;;;6.33;4.12;;;;;;;7.50;83.02;99995.70;1815719;77;21619;-80
2022/12/29 08:33:31;;;;;;;5.85;3.62;;;;;;;7.51;82.99;99994.39;1785617;78;21083;-81
2022/12/29 08:36:03;;;;;;;6.00;3.70;;;;;;;7.53;82.96;100001.66;1786263;79;21095;-83
2022/12/29 08:38:30;;;;;;;6.70;4.75;;;;;;;7.55;82.95;99994.77;1810046;78;21584;-80
2022/12/29 08:40:58;;;;;;;6.58;4.45;;;;;;;7.58;82.97;99991.30;1776096;78;21614;-80
2022/12/29 08:43:25;;;;;;;6.00;4.12;;;;;;;7.61;82.98;100002.84;1810848;78;21644;-79
2022/12/29 08:45:52;;;;;;;8.23;4.35;;;;;;;7.64;82.99;100003.64;1810645;77;21092;-80
2022/12/29 08:48:19;;;;;;;4.75;4.22;;;;;;;7.67;83.00;100003.19;1779255;78;21103;-80
2022/12/29 08:50:47;;;;;;;6.05;3.83;;;;;;;7.70;82.96;100007.86;1782324;79;21687;-80
2022/12/29 08:53:13;;;;;;;7.30;3.60;;;;;;;7.73;82.93;99998.81;1807307;78;21604;-79
2022/12/29 08:55:40;;;;;;;6.33;3.70;;;;;;;7.75;82.95;100000.92;1795860;78;21041;-79
2022/12/29 08:58:07;;;;;;;5.60;3.40;;;;;;;7.80;82.93;100000.39;1793859;78;21980;-79
2022/12/29 09:00:33;;;;;;;7.42;4.22;;;;;;;7.84;82.93;100007.63;1797012;78;21017;-79
2022/12/29 09:03:00;;;;;;;5.62;3.45;;;;;;;7.89;82.93;100001.98;1797710;78;21025;-79
2022/12/29 09:05:26;;;;;;;5.97;3.45;;;;;;;7.94;82.91;100012.63;1796191;78;21092;-80
2022/12/29 09:07:53;;;;;;;6.47;3.65;;;;;;;7.98;82.89;100009.56;1780546;78;22119;-79
2022/12/29 09:10:19;;;;;;;8.98;3.85;;;;;;;8.02;82.89;100003.50;1786572;79;21103;-79
2022/12/29 09:12:46;;;;;;;5.78;3.83;;;;;;;8.05;82.90;99995.73;1811557;77;21059;-79
2022/12/29 09:15:13;;;;;;;9.15;4.03;;;;;;;8.10;82.84;99998.23;1781608;79;21676;-79
2022/12/29 09:17:44;;;;;;;6.90;3.98;;;;;;;8.15;82.84;99984.84;1777763;78;21096;-78
2022/12/29 09:20:14;;;;;;;4.85;3.45;;;;;;;8.20;82.84;99986.91;1807752;78;21268;-79
2022/12/29 09:22:41;;;;;;;5.10;3.95;;;;;;;8.25;82.86;99991.11;1809281;77;21103;-79
2022/12/29 09:25:08;;;;;;;;;;;;;;;8.30;82.80;99993.61;1784238;78;21099;-79
2022/12/29 09:27:36;;;;;;;4.85;3.52;;;;;;;8.34;82.61;99996.98;1804264;78;20351;-78
2022/12/29 09:30:10;;;;;;;7.10;2.85;;;;;;;8.35;82.75;99996.11;1792526;78;21060;-78
2022/12/29 09:32:36;;;;;;;6.60;3.25;;;;;;;8.36;82.78;99996.52;1796227;78;21939;-78
2022/12/29 09:35:04;;;;;;;3.90;3.42;;;;;;;8.37;82.74;99991.34;1780005;79;21004;-78
2022/12/29 09:37:31;;;;;;;4.97;3.20;;;;;;;8.39;82.77;99990.88;1778739;80;21270;-78
2022/12/29 09:39:57;;;;;;;5.17;3.70;;;;;;;8.40;82.73;99983.56;1807644;77;21089;-78
2022/12/29 09:42:44;;;;;;;4.97;3.25;;;;;;;8.43;82.74;99985.23;1796470;78;21115;-77
2022/12/29 09:45:28;;;;;;;6.20;3.45;;;;;;;8.44;82.72;99992.95;1804930;77;21258;-77
2022/12/29 09:47:54;;;;;;;5.35;2.65;;;;;;;8.48;82.72;99987.30;1749628;80;21417;-77
2022/12/29 09:50:32;;;;;;;7.12;3.25;;;;;;;8.50;82.72;99983.82;1810410;78;23682;-77
2022/12/29 09:53:19;;;;;;;5.50;3.33;;;;;;;8.53;82.68;99994.08;1739767;80;21058;-80
2022/12/29 09:55:52;;;;;;;3.95;2.85;;;;;;;8.54;82.68;99971.30;1807747;78;21103;-80
2022/12/29 09:58:30;;;;;;;4.15;2.85;;;;;;;8.59;82.60;99975.92;1780237;79;21234;-80
2022/12/29 10:01:20;;;;;;;3.83;2.50;;;;;;;8.63;82.64;99971.13;1808623;78;20901;-80
2022/12/29 10:03:53;;;;;;;3.15;2.70;;;;;;;8.69;82.64;99977.05;1810302;78;21004;-80
2022/12/29 10:06:48;;;;;;;4.08;2.90;;;;;;;8.78;82.67;99977.73;1777398;78;21013;-80
2022/12/29 10:09:45;;;;;;;4.97;3.10;;;;;;;8.84;82.65;99961.27;1775454;78;20866;-80
2022/12/29 10:12:39;;;;;;;5.37;3.70;;;;;;;8.91;82.64;99970.58;1812163;78;21041;-80
2022/12/29 10:15:33;;;;;;;6.55;3.22;;;;;;;8.94;82.56;99969.23;1752282;79;21025;-79
2022/12/29 10:18:14;;;;;;;5.28;3.30;;;;;;;8.95;82.56;99956.31;1772936;78;20979;-80
2022/12/29 10:20:51;;;;;;;3.02;2.72;;;;;;;9.01;82.58;99959.65;1800442;78;20879;-80
2022/12/29 10:23:29;;;;;;;3.67;2.60;;;;;;;9.07;82.58;99952.64;1780601;80;21800;-84
2022/12/29 10:25:58;;;;;;;4.33;2.67;;;;;;;9.10;82.52;99963.33;1786464;78;21517;-79
2022/12/29 10:28:45;;;;;;;6.72;2.72;;;;;;;9.14;82.55;99968.84;1781495;78;21252;-80
2022/12/29 10:31:20;;;;;;;6.08;2.77;;;;;;;9.21;82.50;99967.83;1778104;79;21821;-80
2022/12/29 10:33:57;;;;;;;3.77;2.42;;;;;;;9.28;82.53;99961.66;1777328;78;21433;-79
2022/12/29 10:36:43;;;;;;;2.95;2.37;;;;;;;9.31;82.48;99959.46;1811820;78;21029;-79
2022/12/29 10:39:24;;;;;;;6.12;2.83;;;;;;;9.36;82.44;99961.03;1790499;79;21636;-78
2022/12/29 10:42:10;;;;;;;5.65;3.08;;;;;;;9.38;82.34;99951.97;1778951;79;20965;-79
2022/12/29 10:44:37;;;;;;;4.00;2.95;;;;;;;9.40;82.35;99951.49;1774199;78;20905;-78
2022/12/29 10:47:13;;;;;;;;;;;;;;;9.44;82.35;99952.68;1774487;78;21474;-78
2022/12/29 10:49:42;;;;;;;3.67;2.72;;;;;;;9.46;82.09;99947.05;1790102;77;20170;-78
2022/12/29 10:52:11;;;;;;;6.50;3.08;;;;;;;9.47;82.28;99934.99;1787710;79;21568;-79
2022/12/29 10:55:00;;;;;;;4.47;3.02;;;;;;;9.49;82.26;99930.64;1783300;79;21677;-78
2022/12/29 10:57:45;;;;;;;4.83;2.83;;;;;;;9.47;82.22;99924.67;1789348;78;20909;-79
2022/12/29 11:00:20;;;;;;;6.20;3.00;;;;;;;9.44;82.20;99917.84;1787916;78;20920;-78
2022/12/29 11:03:09;;;;;;;4.22;3.17;;;;;;;9.43;82.24;99918.73;1791088;79;21450;-79
2022/12/29 11:06:02;;;;;;;4.05;2.58;;;;;;;9.42;82.19;99918.77;1788859;78;21540;-78
2022/12/29 11:08:35;;;;;;;3.52;2.70;;;;;;;9.41;82.20;99918.36;1787897;78;20929;-78
2022/12/29 11:11:06;;;;;;;4.42;3.20;;;;;;;9.42;82.23;99929.09;1785538;78;20937;-79
2022/12/29 11:13:36;;;;;;;8.40;3.22;;;;;;;9.44;82.15;99913.12;1786898;79;20982;-79
2022/12/29 11:16:03;;;;;;;3.77;2.83;;;;;;;9.45;82.21;99919.98;1819838;77;20996;-79
2022/12/29 11:18:38;;;;;;;4.90;3.10;;;;;;;9.47;82.18;99919.51;1786712;78;27110;-78
2022/12/29 11:21:25;;;;;;;4.55;3.20;;;;;;;9.49;82.21;99916.45;1786071;78;20996;-78
2022/12/29 11:24:04;;;;;;;6.80;3.58;;;;;;;9.53;82.18;99915.06;1817505;78;20929;-78
2022/12/29 11:26:32;;;;;;;4.60;3.30;;;;;;;9.56;82.19;99907.25;1787278;79;21481;-78
2022/12/29 11:29:24;;;;;;;3.85;2.80;;;;;;;9.63;82.18;99901.06;1819356;78;20917;-78
2022/12/29 11:31:55;;;;;;;4.20;2.30;;;;;;;9.71;82.19;99906.04;1819227;77;21464;-79
2022/12/29 11:34:33;;;;;;;4.17;2.52;;;;;;;9.80;82.14;99908.84;1791352;79;21529;-79
2022/12/29 11:37:08;;;;;;;3.58;2.45;;;;;;;9.86;82.09;99901.80;1786820;78;20932;-79
2022/12/29 11:39:43;;;;;;;5.25;2.47;;;;;;;9.92;82.00;99900.33;1792325;77;21442;-79
2022/12/29 11:42:18;;;;;;;6.90;2.70;;;;;;;9.93;81.91;99896.86;1788982;78;20954;-78
2022/12/29 11:44:51;;;;;;;4.17;2.40;;;;;;;9.95;81.91;99900.25;1790272;78;21090;-79
2022/12/29 11:47:30;;;;;;;3.65;2.20;;;;;;;9.94;81.87;99906.30;1812166;78;21155;-78
2022/12/29 11:50:01;;;;;;;7.03;3.10;;;;;;;9.94;81.87;99901.14;1780696;78;21535;-79
2022/12/29 11:52:34;;;;;;;3.72;2.40;;;;;;;9.94;81.81;99900.29;1772673;80;21143;-79
2022/12/29 11:55:04;;;;;;;6.97;3.08;;;;;;;9.96;81.85;99903.24;1785931;79;21625;-79
2022/12/29 11:57:33;;;;;;;4.90;2.60;;;;;;;9.97;81.82;99904.09;1780044;78;21138;-78
2022/12/29 12:00:04;;;;;;;5.17;3.05;;;;;;;9.98;81.77;99901.06;1780379;79;21057;-79
2022/12/29 12:02:41;;;;;;;4.15;2.98;;;;;;;10.02;81.80;99907.41;1804091;77;21091;-79
2022/12/29 12:05:22;;;;;;;3.33;2.22;;;;;;;10.04;81.75;99907.38;1778212;78;21364;-79
2022/12/29 12:07:54;;;;;;;3.02;2.27;;;;;;;10.05;81.62;99900.02;1774101;78;21088;-78
2022/12/29 12:10:42;;;;;;;4.12;2.70;;;;;;;10.09;81.66;99905.52;1778761;79;21119;-78
2022/12/29 12:13:12;;;;;;;3.87;2.27;;;;;;;10.09;81.52;99902.49;1771508;79;21482;-78
2022/12/29 12:15:53;;;;;;;5.10;2.67;;;;;;;10.10;81.56;99896.88;1780563;79;21112;-79
2022/12/29 12:18:40;;;;;;;5.28;2.00;;;;;;;10.12;81.58;99903.70;1776650;79;21532;-79
2022/12/29 12:21:22;;;;;;;;;;;;;;;10.14;81.50;99905.81;1775208;79;21130;-79
2022/12/29 12:23:56;;;;;;;5.65;1.90;;;;;;;10.19;81.18;99894.06;1786052;79;21941;-79
2022/12/29 12:26:34;;;;;;;3.55;1.90;;;;;;;10.22;81.42;99909.52;1786493;79;21515;-79
2022/12/29 12:29:31;;;;;;;2.90;1.75;;;;;;;10.23;81.41;99887.52;1789621;79;21057;-79
2022/12/29 12:32:02;;;;;;;3.30;1.98;;;;;;;10.24;81.29;99891.80;1792674;79;21061;-78
2022/12/29 12:34:42;;;;;;;2.08;1.50;;;;;;;10.28;81.29;99889.98;1780240;78;21115;-79
2022/12/29 12:37:29;;;;;;;4.50;2.15;;;;;;;10.31;81.24;99891.20;1811432;78;21616;-79